sensor_id;sensor_type;location;lat;lon;timestamp;pressure;altitude;pressure_sealevel;temperature;humidity
50682;BME280;36779;52.168;20.878;2023-11-19T00:02:28;101152.17;;;0.15;77.73
50682;BME280;36779;52.168;20.878;2023-11-19T00:05:18;101148.88;;;0.11;77.74
50682;BME280;36779;52.168;20.878;2023-11-19T00:08:14;101148.40;;;0.06;77.78
50682;BME280;36779;52.168;20.878;2023-11-19T00:11:04;101153.80;;;0.03;77.65
50682;BME280;36779;52.168;20.878;2023-11-19T00:13:57;101163.30;;;0.05;77.90
50682;BME280;36779;52.168;20.878;2023-11-19T00:16:39;101170.96;;;0.09;77.76
50682;BME280;36779;52.168;20.878;2023-11-19T00:19:29;101166.63;;;0.12;77.86
50682;BME280;36779;52.168;20.878;2023-11-19T00:22:18;101157.09;;;0.18;77.90
50682;BME280;36779;52.168;20.878;2023-11-19T00:25:13;101149.31;;;0.22;77.87
50682;BME280;36779;52.168;20.878;2023-11-19T00:28:05;101137.88;;;0.24;77.80
50682;BME280;36779;52.168;20.878;2023-11-19T00:30:55;101134.66;;;0.26;77.83
50682;BME280;36779;52.168;20.878;2023-11-19T00:33:50;101137.97;;;0.30;77.82
50682;BME280;36779;52.168;20.878;2023-11-19T00:36:39;101139.48;;;0.34;78.01
50682;BME280;36779;52.168;20.878;2023-11-19T00:39:29;101131.85;;;0.43;78.08
50682;BME280;36779;52.168;20.878;2023-11-19T00:42:18;101126.58;;;0.40;77.93
50682;BME280;36779;52.168;20.878;2023-11-19T00:45:09;101123.77;;;0.34;77.75
50682;BME280;36779;52.168;20.878;2023-11-19T00:47:57;101118.11;;;0.32;77.92
50682;BME280;36779;52.168;20.878;2023-11-19T00:50:48;101117.39;;;0.35;78.12
50682;BME280;36779;52.168;20.878;2023-11-19T00:53:37;101110.39;;;0.35;78.00
50682;BME280;36779;52.168;20.878;2023-11-19T00:56:17;101103.29;;;0.31;77.79
50682;BME280;36779;52.168;20.878;2023-11-19T00:58:51;101098.54;;;0.24;77.68
50682;BME280;36779;52.168;20.878;2023-11-19T01:01:40;101089.16;;;0.23;77.68
50682;BME280;36779;52.168;20.878;2023-11-19T01:04:37;101077.30;;;0.22;77.57
50682;BME280;36779;52.168;20.878;2023-11-19T01:07:29;101072.76;;;0.22;77.65
50682;BME280;36779;52.168;20.878;2023-11-19T01:10:20;101073.59;;;0.20;77.61
50682;BME280;36779;52.168;20.878;2023-11-19T01:13:11;101067.39;;;0.18;77.66
50682;BME280;36779;52.168;20.878;2023-11-19T01:16:01;101062.25;;;0.19;77.70
50682;BME280;36779;52.168;20.878;2023-11-19T01:18:51;101060.15;;;0.19;77.77
50682;BME280;36779;52.168;20.878;2023-11-19T01:21:50;101051.41;;;0.19;77.71
50682;BME280;36779;52.168;20.878;2023-11-19T01:24:41;101044.73;;;0.17;77.79
50682;BME280;36779;52.168;20.878;2023-11-19T01:27:30;101042.26;;;0.14;77.73
50682;BME280;36779;52.168;20.878;2023-11-19T01:30:23;101047.52;;;0.10;77.70
50682;BME280;36779;52.168;20.878;2023-11-19T01:33:13;101058.37;;;0.10;77.72
50682;BME280;36779;52.168;20.878;2023-11-19T01:36:01;101058.02;;;0.17;77.88
50682;BME280;36779;52.168;20.878;2023-11-19T01:38:50;101059.55;;;0.28;78.02
50682;BME280;36779;52.168;20.878;2023-11-19T01:41:38;101053.95;;;0.34;78.02
50682;BME280;36779;52.168;20.878;2023-11-19T01:44:28;101048.73;;;0.38;77.94
50682;BME280;36779;52.168;20.878;2023-11-19T01:47:18;101041.21;;;0.38;77.77
50682;BME280;36779;52.168;20.878;2023-11-19T01:49:57;101034.70;;;0.38;77.86
50682;BME280;36779;52.168;20.878;2023-11-19T01:52:50;101027.05;;;0.47;78.16
50682;BME280;36779;52.168;20.878;2023-11-19T01:55:41;101026.45;;;0.59;78.31
50682;BME280;36779;52.168;20.878;2023-11-19T01:58:31;101026.02;;;0.63;78.32
50682;BME280;36779;52.168;20.878;2023-11-19T02:01:22;101023.70;;;0.67;78.51
50682;BME280;36779;52.168;20.878;2023-11-19T02:04:13;101023.75;;;0.69;78.47
50682;BME280;36779;52.168;20.878;2023-11-19T02:07:03;101018.09;;;0.67;78.41
50682;BME280;36779;52.168;20.878;2023-11-19T02:09:54;101016.54;;;0.64;78.29
50682;BME280;36779;52.168;20.878;2023-11-19T02:12:44;101013.78;;;0.63;78.26
50682;BME280;36779;52.168;20.878;2023-11-19T02:15:34;101012.64;;;0.62;78.18
50682;BME280;36779;52.168;20.878;2023-11-19T02:18:24;101005.15;;;0.61;78.13
50682;BME280;36779;52.168;20.878;2023-11-19T02:21:09;100995.06;;;0.63;78.31
50682;BME280;36779;52.168;20.878;2023-11-19T02:23:58;100991.78;;;0.65;78.32
50682;BME280;36779;52.168;20.878;2023-11-19T02:26:57;100991.02;;;0.70;78.37
50682;BME280;36779;52.168;20.878;2023-11-19T02:29:48;100987.73;;;0.76;78.50
50682;BME280;36779;52.168;20.878;2023-11-19T02:32:37;100991.85;;;0.71;78.30
50682;BME280;36779;52.168;20.878;2023-11-19T02:35:17;100984.28;;;0.62;78.23
50682;BME280;36779;52.168;20.878;2023-11-19T02:38:07;100981.52;;;0.55;78.11
50682;BME280;36779;52.168;20.878;2023-11-19T02:40:57;100977.03;;;0.51;78.16
50682;BME280;36779;52.168;20.878;2023-11-19T02:43:38;100980.41;;;0.46;78.08
50682;BME280;36779;52.168;20.878;2023-11-19T02:46:27;100981.00;;;0.39;78.02
50682;BME280;36779;52.168;20.878;2023-11-19T02:49:17;100973.52;;;0.38;78.15
50682;BME280;36779;52.168;20.878;2023-11-19T02:51:54;100967.19;;;0.39;78.00
50682;BME280;36779;52.168;20.878;2023-11-19T02:54:44;100956.09;;;0.40;78.09
50682;BME280;36779;52.168;20.878;2023-11-19T02:57:31;100943.63;;;0.41;77.95
50682;BME280;36779;52.168;20.878;2023-11-19T03:00:23;100938.85;;;0.42;78.13
50682;BME280;36779;52.168;20.878;2023-11-19T03:03:13;100935.24;;;0.47;78.15
50682;BME280;36779;52.168;20.878;2023-11-19T03:06:09;100935.06;;;0.51;78.15
50682;BME280;36779;52.168;20.878;2023-11-19T03:08:58;100933.36;;;0.53;78.31
50682;BME280;36779;52.168;20.878;2023-11-19T03:11:48;100925.80;;;0.53;78.21
50682;BME280;36779;52.168;20.878;2023-11-19T03:14:38;100919.85;;;0.51;78.20
50682;BME280;36779;52.168;20.878;2023-11-19T03:17:28;100911.77;;;0.48;78.19
50682;BME280;36779;52.168;20.878;2023-11-19T03:20:18;100910.13;;;0.46;78.21
50682;BME280;36779;52.168;20.878;2023-11-19T03:22:59;100906.52;;;0.42;78.07
50682;BME280;36779;52.168;20.878;2023-11-19T03:25:50;100908.58;;;0.39;78.01
50682;BME280;36779;52.168;20.878;2023-11-19T03:28:37;100901.69;;;0.37;78.08
50682;BME280;36779;52.168;20.878;2023-11-19T03:31:27;100902.79;;;0.36;78.13
50682;BME280;36779;52.168;20.878;2023-11-19T03:34:19;100900.70;;;0.36;78.02
50682;BME280;36779;52.168;20.878;2023-11-19T03:37:10;100897.69;;;0.34;77.93
50682;BME280;36779;52.168;20.878;2023-11-19T03:40:00;100887.92;;;0.33;77.98
50682;BME280;36779;52.168;20.878;2023-11-19T03:42:44;100878.94;;;0.38;78.07
50682;BME280;36779;52.168;20.878;2023-11-19T03:45:32;100874.83;;;0.45;78.20
50682;BME280;36779;52.168;20.878;2023-11-19T03:48:22;100872.15;;;0.46;77.98
50682;BME280;36779;52.168;20.878;2023-11-19T03:51:11;100870.41;;;0.46;78.18
50682;BME280;36779;52.168;20.878;2023-11-19T03:54:02;100870.95;;;0.46;78.16
50682;BME280;36779;52.168;20.878;2023-11-19T03:56:52;100862.01;;;0.43;78.14
50682;BME280;36779;52.168;20.878;2023-11-19T03:59:44;100858.20;;;0.36;78.05
50682;BME280;36779;52.168;20.878;2023-11-19T04:02:33;100854.61;;;0.32;77.98
50682;BME280;36779;52.168;20.878;2023-11-19T04:05:23;100846.71;;;0.29;78.03
50682;BME280;36779;52.168;20.878;2023-11-19T04:08:05;100842.86;;;0.29;77.97
50682;BME280;36779;52.168;20.878;2023-11-19T04:10:54;100840.02;;;0.30;78.02
50682;BME280;36779;52.168;20.878;2023-11-19T04:13:47;100829.23;;;0.32;78.02
50682;BME280;36779;52.168;20.878;2023-11-19T04:16:27;100822.06;;;0.36;78.10
50682;BME280;36779;52.168;20.878;2023-11-19T04:19:18;100820.02;;;0.41;78.13
50682;BME280;36779;52.168;20.878;2023-11-19T04:22:06;100820.71;;;0.44;78.23
50682;BME280;36779;52.168;20.878;2023-11-19T04:24:58;100806.68;;;0.44;78.05
50682;BME280;36779;52.168;20.878;2023-11-19T04:27:47;100799.05;;;0.43;78.22
50682;BME280;36779;52.168;20.878;2023-11-19T04:30:30;100797.47;;;0.40;78.03
50682;BME280;36779;52.168;20.878;2023-11-19T04:33:20;100796.80;;;0.34;77.99
50682;BME280;36779;52.168;20.878;2023-11-19T04:36:11;100796.90;;;0.29;77.95
50682;BME280;36779;52.168;20.878;2023-11-19T04:39:02;100795.13;;;0.23;77.87
50682;BME280;36779;52.168;20.878;2023-11-19T04:41:57;100792.84;;;0.20;77.88
50682;BME280;36779;52.168;20.878;2023-11-19T04:44:40;100792.14;;;0.20;77.83
50682;BME280;36779;52.168;20.878;2023-11-19T04:47:31;100793.03;;;0.23;77.94
50682;BME280;36779;52.168;20.878;2023-11-19T04:50:23;100786.11;;;0.25;77.86
50682;BME280;36779;52.168;20.878;2023-11-19T04:53:14;100785.19;;;0.26;77.98
50682;BME280;36779;52.168;20.878;2023-11-19T04:56:09;100774.15;;;0.26;78.02
50682;BME280;36779;52.168;20.878;2023-11-19T04:58:59;100762.80;;;0.26;77.92
50682;BME280;36779;52.168;20.878;2023-11-19T05:01:48;100761.05;;;0.22;78.00
50682;BME280;36779;52.168;20.878;2023-11-19T05:04:37;100758.86;;;0.18;77.95
50682;BME280;36779;52.168;20.878;2023-11-19T05:07:31;100759.27;;;0.17;78.00
50682;BME280;36779;52.168;20.878;2023-11-19T05:10:20;100751.45;;;0.19;78.13
50682;BME280;36779;52.168;20.878;2023-11-19T05:13:09;100751.23;;;0.20;78.03
50682;BME280;36779;52.168;20.878;2023-11-19T05:15:59;100746.98;;;0.18;77.97
50682;BME280;36779;52.168;20.878;2023-11-19T05:18:48;100742.72;;;0.19;77.94
50682;BME280;36779;52.168;20.878;2023-11-19T05:21:42;100737.45;;;0.23;78.10
50682;BME280;36779;52.168;20.878;2023-11-19T05:24:32;100736.39;;;0.26;78.02
50682;BME280;36779;52.168;20.878;2023-11-19T05:27:25;100732.33;;;0.27;77.88
50682;BME280;36779;52.168;20.878;2023-11-19T05:30:09;100732.90;;;0.29;77.98
50682;BME280;36779;52.168;20.878;2023-11-19T05:32:59;100724.88;;;0.29;78.10
50682;BME280;36779;52.168;20.878;2023-11-19T05:35:50;100720.81;;;0.23;77.87
50682;BME280;36779;52.168;20.878;2023-11-19T05:38:40;100722.08;;;0.16;77.95
50682;BME280;36779;52.168;20.878;2023-11-19T05:41:30;100722.58;;;0.14;77.96
50682;BME280;36779;52.168;20.878;2023-11-19T05:44:20;100724.00;;;0.13;77.86
50682;BME280;36779;52.168;20.878;2023-11-19T05:47:09;100721.54;;;0.11;77.85
50682;BME280;36779;52.168;20.878;2023-11-19T05:49:57;100715.16;;;0.12;77.86
50682;BME280;36779;52.168;20.878;2023-11-19T05:52:47;100707.25;;;0.13;77.86
50682;BME280;36779;52.168;20.878;2023-11-19T05:55:37;100709.63;;;0.14;77.93
50682;BME280;36779;52.168;20.878;2023-11-19T05:58:33;100715.14;;;0.22;78.01
50682;BME280;36779;52.168;20.878;2023-11-19T06:01:24;100715.57;;;0.23;77.93
50682;BME280;36779;52.168;20.878;2023-11-19T06:04:14;100717.89;;;0.22;77.94
50682;BME280;36779;52.168;20.878;2023-11-19T06:07:06;100715.13;;;0.19;77.94
50682;BME280;36779;52.168;20.878;2023-11-19T06:09:58;100714.23;;;0.13;77.94
50682;BME280;36779;52.168;20.878;2023-11-19T06:12:27;100711.96;;;0.07;77.87
50682;BME280;36779;52.168;20.878;2023-11-19T06:15:17;100710.88;;;0.02;77.83
50682;BME280;36779;52.168;20.878;2023-11-19T06:18:06;100709.61;;;-0.01;77.88
50682;BME280;36779;52.168;20.878;2023-11-19T06:20:57;100708.77;;;-0.05;77.77
50682;BME280;36779;52.168;20.878;2023-11-19T06:23:45;100702.30;;;-0.05;77.83
50682;BME280;36779;52.168;20.878;2023-11-19T06:26:35;100694.19;;;-0.03;77.85
50682;BME280;36779;52.168;20.878;2023-11-19T06:29:25;100692.46;;;-0.00;77.86
50682;BME280;36779;52.168;20.878;2023-11-19T06:32:15;100687.05;;;-0.01;77.86
50682;BME280;36779;52.168;20.878;2023-11-19T06:35:00;100679.61;;;-0.02;77.86
50682;BME280;36779;52.168;20.878;2023-11-19T06:37:51;100672.19;;;-0.04;77.95
50682;BME280;36779;52.168;20.878;2023-11-19T06:40:42;100667.04;;;-0.05;77.94
50682;BME280;36779;52.168;20.878;2023-11-19T06:43:27;100668.46;;;-0.06;78.03
50682;BME280;36779;52.168;20.878;2023-11-19T06:46:30;100666.44;;;-0.07;77.99
50682;BME280;36779;52.168;20.878;2023-11-19T06:49:22;100666.55;;;-0.12;77.82
50682;BME280;36779;52.168;20.878;2023-11-19T06:52:13;100660.36;;;-0.13;77.72
50682;BME280;36779;52.168;20.878;2023-11-19T06:55:05;100655.08;;;-0.16;77.81
50682;BME280;36779;52.168;20.878;2023-11-19T06:57:56;100651.52;;;-0.15;77.79
50682;BME280;36779;52.168;20.878;2023-11-19T07:00:50;100643.32;;;-0.15;77.78
50682;BME280;36779;52.168;20.878;2023-11-19T07:03:40;100640.52;;;-0.18;77.79
50682;BME280;36779;52.168;20.878;2023-11-19T07:06:29;100646.06;;;-0.20;77.84
50682;BME280;36779;52.168;20.878;2023-11-19T07:09:13;100641.41;;;-0.24;77.76
50682;BME280;36779;52.168;20.878;2023-11-19T07:12:07;100637.38;;;-0.27;77.85
50682;BME280;36779;52.168;20.878;2023-11-19T07:15:01;100631.79;;;-0.31;77.96
50682;BME280;36779;52.168;20.878;2023-11-19T07:17:51;100629.04;;;-0.28;77.98
50682;BME280;36779;52.168;20.878;2023-11-19T07:20:48;100625.05;;;-0.22;77.94
50682;BME280;36779;52.168;20.878;2023-11-19T07:23:38;100625.30;;;-0.17;77.93
50682;BME280;36779;52.168;20.878;2023-11-19T07:26:33;100627.38;;;-0.14;77.82
50682;BME280;36779;52.168;20.878;2023-11-19T07:29:23;100621.48;;;-0.12;77.88
50682;BME280;36779;52.168;20.878;2023-11-19T07:32:16;100615.70;;;-0.06;77.88
50682;BME280;36779;52.168;20.878;2023-11-19T07:35:08;100614.39;;;-0.01;77.97
50682;BME280;36779;52.168;20.878;2023-11-19T07:37:47;100611.48;;;0.04;78.04
50682;BME280;36779;52.168;20.878;2023-11-19T07:40:38;100610.45;;;0.04;78.09
50682;BME280;36779;52.168;20.878;2023-11-19T07:43:29;100602.05;;;0.04;78.01
50682;BME280;36779;52.168;20.878;2023-11-19T07:46:19;100593.61;;;0.05;78.04
50682;BME280;36779;52.168;20.878;2023-11-19T07:49:10;100591.79;;;0.06;78.07
50682;BME280;36779;52.168;20.878;2023-11-19T07:52:00;100588.80;;;0.06;77.98
50682;BME280;36779;52.168;20.878;2023-11-19T07:54:52;100586.77;;;0.08;78.01
50682;BME280;36779;52.168;20.878;2023-11-19T07:57:42;100581.50;;;0.15;77.93
50682;BME280;36779;52.168;20.878;2023-11-19T08:00:31;100583.02;;;0.18;77.91
50682;BME280;36779;52.168;20.878;2023-11-19T08:03:24;100576.41;;;0.21;77.89
50682;BME280;36779;52.168;20.878;2023-11-19T08:06:06;100572.73;;;0.23;77.92
50682;BME280;36779;52.168;20.878;2023-11-19T08:08:58;100572.44;;;0.32;78.04
50682;BME280;36779;52.168;20.878;2023-11-19T08:11:51;100572.80;;;0.32;78.00
50682;BME280;36779;52.168;20.878;2023-11-19T08:14:41;100567.98;;;0.31;78.01
50682;BME280;36779;52.168;20.878;2023-11-19T08:17:34;100568.84;;;0.31;78.06
50682;BME280;36779;52.168;20.878;2023-11-19T08:20:23;100558.92;;;0.30;78.02
50682;BME280;36779;52.168;20.878;2023-11-19T08:23:13;100556.27;;;0.33;78.02
50682;BME280;36779;52.168;20.878;2023-11-19T08:26:05;100541.74;;;0.36;78.00
50682;BME280;36779;52.168;20.878;2023-11-19T08:29:17;100533.22;;;0.41;78.02
50682;BME280;36779;52.168;20.878;2023-11-19T08:32:00;100529.63;;;0.49;77.97
50682;BME280;36779;52.168;20.878;2023-11-19T08:34:51;100528.74;;;0.52;78.02
50682;BME280;36779;52.168;20.878;2023-11-19T08:37:43;100530.52;;;0.57;77.96
50682;BME280;36779;52.168;20.878;2023-11-19T08:40:34;100530.71;;;0.59;78.01
50682;BME280;36779;52.168;20.878;2023-11-19T08:43:23;100522.13;;;0.57;78.00
50682;BME280;36779;52.168;20.878;2023-11-19T08:46:10;100523.69;;;0.57;78.04
50682;BME280;36779;52.168;20.878;2023-11-19T08:48:57;100520.85;;;0.55;77.95
50682;BME280;36779;52.168;20.878;2023-11-19T08:51:37;100516.94;;;0.53;77.94
50682;BME280;36779;52.168;20.878;2023-11-19T08:54:43;100515.30;;;0.51;77.92
50682;BME280;36779;52.168;20.878;2023-11-19T08:57:32;100511.20;;;0.52;77.97
50682;BME280;36779;52.168;20.878;2023-11-19T09:00:22;100511.08;;;0.60;77.97
50682;BME280;36779;52.168;20.878;2023-11-19T09:03:14;100500.90;;;0.63;78.03
50682;BME280;36779;52.168;20.878;2023-11-19T09:06:13;100492.63;;;0.70;78.09
50682;BME280;36779;52.168;20.878;2023-11-19T09:09:03;100490.38;;;0.78;78.11
50682;BME280;36779;52.168;20.878;2023-11-19T09:11:57;100486.41;;;0.82;78.13
50682;BME280;36779;52.168;20.878;2023-11-19T09:14:46;100476.32;;;0.81;78.06
50682;BME280;36779;52.168;20.878;2023-11-19T09:17:37;100468.48;;;0.81;77.94
50682;BME280;36779;52.168;20.878;2023-11-19T09:20:29;100458.88;;;0.75;77.91
50682;BME280;36779;52.168;20.878;2023-11-19T09:23:26;100453.85;;;0.66;77.76
50682;BME280;36779;52.168;20.878;2023-11-19T09:26:17;100451.55;;;0.58;77.83
50682;BME280;36779;52.168;20.878;2023-11-19T09:29:08;100449.63;;;0.55;77.77
50682;BME280;36779;52.168;20.878;2023-11-19T09:31:58;100452.80;;;0.55;77.77
50682;BME280;36779;52.168;20.878;2023-11-19T09:34:48;100442.90;;;0.54;77.82
50682;BME280;36779;52.168;20.878;2023-11-19T09:37:37;100440.80;;;0.54;77.73
50682;BME280;36779;52.168;20.878;2023-11-19T09:40:27;100439.13;;;0.56;77.84
50682;BME280;36779;52.168;20.878;2023-11-19T09:43:17;100435.39;;;0.59;77.84
50682;BME280;36779;52.168;20.878;2023-11-19T09:46:10;100431.90;;;0.62;77.93
50682;BME280;36779;52.168;20.878;2023-11-19T09:49:03;100430.69;;;0.62;77.75
50682;BME280;36779;52.168;20.878;2023-11-19T09:52:19;100426.48;;;0.62;77.84
50682;BME280;36779;52.168;20.878;2023-11-19T09:55:53;100426.83;;;0.59;77.89
50682;BME280;36779;52.168;20.878;2023-11-19T09:58:38;100420.92;;;0.56;77.84
50682;BME280;36779;52.168;20.878;2023-11-19T10:01:27;100413.67;;;0.54;77.99
50682;BME280;36779;52.168;20.878;2023-11-19T10:04:18;100407.84;;;0.58;78.02
50682;BME280;36779;52.168;20.878;2023-11-19T10:07:11;100405.79;;;0.63;77.93
50682;BME280;36779;52.168;20.878;2023-11-19T10:10:00;100402.89;;;0.64;77.94
50682;BME280;36779;52.168;20.878;2023-11-19T10:12:52;100394.48;;;0.67;77.91
50682;BME280;36779;52.168;20.878;2023-11-19T10:15:38;100386.92;;;0.70;77.77
50682;BME280;36779;52.168;20.878;2023-11-19T10:18:28;100382.33;;;0.72;77.91
50682;BME280;36779;52.168;20.878;2023-11-19T10:21:19;100374.87;;;0.73;77.87
50682;BME280;36779;52.168;20.878;2023-11-19T10:24:11;100371.37;;;0.73;77.91
50682;BME280;36779;52.168;20.878;2023-11-19T10:27:00;100369.57;;;0.71;77.90
50682;BME280;36779;52.168;20.878;2023-11-19T10:29:51;100371.60;;;0.66;77.85
50682;BME280;36779;52.168;20.878;2023-11-19T10:32:33;100370.98;;;0.63;77.80
50682;BME280;36779;52.168;20.878;2023-11-19T10:35:23;100365.06;;;0.60;77.87
50682;BME280;36779;52.168;20.878;2023-11-19T10:38:15;100357.23;;;0.59;77.94
50682;BME280;36779;52.168;20.878;2023-11-19T10:41:27;100348.42;;;0.57;77.87
50682;BME280;36779;52.168;20.878;2023-11-19T10:44:33;100348.50;;;0.59;77.91
50682;BME280;36779;52.168;20.878;2023-11-19T10:47:27;100340.28;;;0.61;77.84
50682;BME280;36779;52.168;20.878;2023-11-19T10:50:22;100332.73;;;0.62;77.77
50682;BME280;36779;52.168;20.878;2023-11-19T10:53:13;100325.67;;;0.65;77.80
50682;BME280;36779;52.168;20.878;2023-11-19T10:56:05;100320.04;;;0.68;77.90
50682;BME280;36779;52.168;20.878;2023-11-19T10:59:00;100313.70;;;0.69;77.76
50682;BME280;36779;52.168;20.878;2023-11-19T11:01:53;100304.67;;;0.68;77.86
50682;BME280;36779;52.168;20.878;2023-11-19T11:04:35;100300.63;;;0.66;77.91
50682;BME280;36779;52.168;20.878;2023-11-19T11:07:22;100289.81;;;0.63;77.91
50682;BME280;36779;52.168;20.878;2023-11-19T11:10:26;100282.84;;;0.60;77.95
50682;BME280;36779;52.168;20.878;2023-11-19T11:13:16;100276.48;;;0.55;77.79
50682;BME280;36779;52.168;20.878;2023-11-19T11:16:08;100270.20;;;0.53;77.77
50682;BME280;36779;52.168;20.878;2023-11-19T11:18:59;100262.98;;;0.51;77.95
50682;BME280;36779;52.168;20.878;2023-11-19T11:21:51;100260.04;;;0.51;77.79
50682;BME280;36779;52.168;20.878;2023-11-19T11:25:10;100253.86;;;0.51;77.87
50682;BME280;36779;52.168;20.878;2023-11-19T11:28:14;100239.48;;;0.57;78.02
50682;BME280;36779;52.168;20.878;2023-11-19T11:31:23;100231.71;;;0.63;77.97
50682;BME280;36779;52.168;20.878;2023-11-19T11:34:21;100221.49;;;0.70;78.05
50682;BME280;36779;52.168;20.878;2023-11-19T11:37:19;100218.13;;;0.73;77.94
50682;BME280;36779;52.168;20.878;2023-11-19T11:40:15;100214.41;;;0.74;77.94
50682;BME280;36779;52.168;20.878;2023-11-19T11:42:58;100208.95;;;0.71;77.95
50682;BME280;36779;52.168;20.878;2023-11-19T11:45:53;100202.39;;;0.68;77.92
50682;BME280;36779;52.168;20.878;2023-11-19T11:48:47;100197.54;;;0.67;77.79
50682;BME280;36779;52.168;20.878;2023-11-19T11:51:59;100194.02;;;0.67;77.83
50682;BME280;36779;52.168;20.878;2023-11-19T11:54:50;100184.52;;;0.68;77.93
50682;BME280;36779;52.168;20.878;2023-11-19T11:57:41;100172.36;;;0.72;77.81
50682;BME280;36779;52.168;20.878;2023-11-19T12:03:38;100161.43;;;0.79;78.00
50682;BME280;36779;52.168;20.878;2023-11-19T12:06:32;100157.85;;;0.80;77.80
50682;BME280;36779;52.168;20.878;2023-11-19T12:09:27;100157.42;;;0.81;77.83
50682;BME280;36779;52.168;20.878;2023-11-19T12:12:26;100148.77;;;0.82;77.91
50682;BME280;36779;52.168;20.878;2023-11-19T12:15:07;100144.29;;;0.81;77.94
50682;BME280;36779;52.168;20.878;2023-11-19T12:17:59;100135.42;;;0.78;78.00
50682;BME280;36779;52.168;20.878;2023-11-19T12:20:51;100129.88;;;0.72;77.92
50682;BME280;36779;52.168;20.878;2023-11-19T12:23:46;100129.42;;;0.68;77.89
50682;BME280;36779;52.168;20.878;2023-11-19T12:26:40;100130.02;;;0.67;77.88
50682;BME280;36779;52.168;20.878;2023-11-19T12:29:22;100122.17;;;0.67;77.86
50682;BME280;36779;52.168;20.878;2023-11-19T12:32:16;100118.21;;;0.66;77.82
50682;BME280;36779;52.168;20.878;2023-11-19T12:35:06;100108.96;;;0.68;77.88
50682;BME280;36779;52.168;20.878;2023-11-19T12:37:55;100109.16;;;0.71;77.89
50682;BME280;36779;52.168;20.878;2023-11-19T12:40:46;100108.02;;;0.74;77.90
50682;BME280;36779;52.168;20.878;2023-11-19T12:43:35;100110.34;;;0.76;77.90
50682;BME280;36779;52.168;20.878;2023-11-19T12:46:37;100110.62;;;0.77;77.94
50682;BME280;36779;52.168;20.878;2023-11-19T12:49:28;100107.45;;;0.75;78.00
50682;BME280;36779;52.168;20.878;2023-11-19T12:52:22;100109.21;;;0.72;77.87
50682;BME280;36779;52.168;20.878;2023-11-19T12:55:25;100108.57;;;0.69;78.01
50682;BME280;36779;52.168;20.878;2023-11-19T12:58:32;100106.77;;;0.65;77.93
50682;BME280;36779;52.168;20.878;2023-11-19T13:01:18;100106.41;;;0.62;77.90
50682;BME280;36779;52.168;20.878;2023-11-19T13:04:17;100104.83;;;0.62;77.87
50682;BME280;36779;52.168;20.878;2023-11-19T13:07:07;100095.68;;;0.63;77.83
50682;BME280;36779;52.168;20.878;2023-11-19T13:09:37;100087.36;;;0.64;77.95
50682;BME280;36779;52.168;20.878;2023-11-19T13:13:00;100080.91;;;0.66;77.82
50682;BME280;36779;52.168;20.878;2023-11-19T13:15:50;100069.04;;;0.66;77.82
50682;BME280;36779;52.168;20.878;2023-11-19T13:18:39;100059.77;;;0.69;77.90
50682;BME280;36779;52.168;20.878;2023-11-19T13:21:26;100051.35;;;0.72;77.82
50682;BME280;36779;52.168;20.878;2023-11-19T13:24:15;100043.31;;;0.75;77.82
50682;BME280;36779;52.168;20.878;2023-11-19T13:26:59;100038.52;;;0.75;77.87
50682;BME280;36779;52.168;20.878;2023-11-19T13:29:48;100031.81;;;0.74;77.84
50682;BME280;36779;52.168;20.878;2023-11-19T13:32:37;100030.88;;;0.72;77.89
50682;BME280;36779;52.168;20.878;2023-11-19T13:35:27;100025.48;;;0.66;77.91
50682;BME280;36779;52.168;20.878;2023-11-19T13:38:17;100022.39;;;0.63;77.86
50682;BME280;36779;52.168;20.878;2023-11-19T13:41:07;100016.55;;;0.62;77.91
50682;BME280;36779;52.168;20.878;2023-11-19T13:44:00;100012.65;;;0.60;77.95
50682;BME280;36779;52.168;20.878;2023-11-19T13:46:33;100005.34;;;0.59;77.86
50682;BME280;36779;52.168;20.878;2023-11-19T13:49:26;99998.80;;;0.60;77.88
50682;BME280;36779;52.168;20.878;2023-11-19T13:52:17;99991.48;;;0.60;77.92
50682;BME280;36779;52.168;20.878;2023-11-19T13:55:09;99989.45;;;0.62;77.90
50682;BME280;36779;52.168;20.878;2023-11-19T13:57:52;99982.60;;;0.64;77.89
50682;BME280;36779;52.168;20.878;2023-11-19T14:01:05;99984.73;;;0.67;77.96
50682;BME280;36779;52.168;20.878;2023-11-19T14:03:54;99977.85;;;0.70;77.89
50682;BME280;36779;52.168;20.878;2023-11-19T14:06:46;99974.66;;;0.70;77.92
50682;BME280;36779;52.168;20.878;2023-11-19T14:09:36;99965.00;;;0.68;77.81
50682;BME280;36779;52.168;20.878;2023-11-19T14:12:47;99967.50;;;0.65;77.82
50682;BME280;36779;52.168;20.878;2023-11-19T14:15:39;99964.20;;;0.62;77.83
50682;BME280;36779;52.168;20.878;2023-11-19T14:18:32;99959.39;;;0.59;77.90
50682;BME280;36779;52.168;20.878;2023-11-19T14:21:16;99957.19;;;0.58;77.82
50682;BME280;36779;52.168;20.878;2023-11-19T14:24:07;99953.18;;;0.58;77.91
50682;BME280;36779;52.168;20.878;2023-11-19T14:26:52;99952.48;;;0.57;77.76
50682;BME280;36779;52.168;20.878;2023-11-19T14:29:45;99949.48;;;0.58;77.92
50682;BME280;36779;52.168;20.878;2023-11-19T14:32:20;99945.74;;;0.59;77.91
50682;BME280;36779;52.168;20.878;2023-11-19T14:35:11;99943.41;;;0.60;77.94
50682;BME280;36779;52.168;20.878;2023-11-19T14:38:07;99939.41;;;0.57;77.89
50682;BME280;36779;52.168;20.878;2023-11-19T14:40:59;99936.73;;;0.55;77.79
50682;BME280;36779;52.168;20.878;2023-11-19T14:43:49;99937.16;;;0.52;77.76
50682;BME280;36779;52.168;20.878;2023-11-19T14:46:38;99935.77;;;0.47;77.77
50682;BME280;36779;52.168;20.878;2023-11-19T14:49:28;99931.84;;;0.40;77.84
50682;BME280;36779;52.168;20.878;2023-11-19T14:52:17;99932.35;;;0.38;77.78
50682;BME280;36779;52.168;20.878;2023-11-19T14:55:09;99931.77;;;0.37;77.83
50682;BME280;36779;52.168;20.878;2023-11-19T14:57:59;99923.69;;;0.35;77.86